Etusivu
METAR-TAF:

METAR-TAF

Lentoasemat :

Effingham County Memorial Airport

Effingham, Illinois, Yhdysvallat

Leveyspiiri: 39-04-14N, Pituuspiiri: 088-32-00W, korkeus merenpinnasta: 179 m

Tämänhetkinen sää

Tämä raportti tehtiin 20 minuuttia sitten, kello 03.35 UTC
Tuuli 4 kn pohjoisen/luoteesta
Lämpötila 7°C
Kosteus 100%
Ilmanpaine 1020 hPa
Näkyvyys: 16.1 km
Hajonneita pilviä 1300 ft:n korkeudessa
Pilvistä 2100 ft:n korkeudessa

METAR: K1H2 050335Z AUTO 34004KT 10SM BKN013 OVC021 07/07 A3013 RMK AO2 T00710065

Aika: 22:55 (03:55 UTC)


TAF: puuttuu

Säähavainnot ja -ennusteet yli 4000 lentoasemalta (METAR- ja TAF-raportit).

Käytössä olevat sääasemat on merkitty karttaan keltaisilla ja punaisilla pisteillä.

Aseta hiiri pisteen päälle nähdäksesi sääaseman nimen.

Klikkaa sitten nähdäksesi säähavainnot ja -ennusteet.

Kartan vaihtaminen: klikkaa mustalla rastilla varustettuja vihreitä pisteitä, niin voit zoomata sisään; viivalla varustettua vihreää pistettä, niin voit zoomata ulos tai vihreitä nuolia, niin pääset viereisille kartoille.


METAR-TAF: